createdAt,value
2019-05-10T00:02:15.384Z,8.47
2019-05-10T00:05:08.209Z,8.87
2019-05-10T00:08:00.932Z,11.47
2019-05-10T00:10:34.938Z,8.57
2019-05-10T00:13:22.328Z,12.47
2019-05-10T00:15:57.593Z,11.70
2019-05-10T00:18:33.321Z,10.03
2019-05-10T00:21:08.398Z,10.17
2019-05-10T00:23:43.575Z,10.27
2019-05-10T00:26:18.739Z,13.50
2019-05-10T00:28:53.883Z,10.10
2019-05-10T00:31:28.858Z,8.83
2019-05-10T00:34:04.136Z,9.37
2019-05-10T00:36:39.115Z,9.70
2019-05-10T00:39:14.058Z,9.30
2019-05-10T00:41:50.108Z,10.10
2019-05-10T00:44:25.099Z,12.37
2019-05-10T00:47:00.084Z,11.07
2019-05-10T00:49:35.254Z,9.60
2019-05-10T00:52:10.329Z,9.87
2019-05-10T00:54:45.317Z,10.67
2019-05-10T00:57:21.381Z,11.10
2019-05-10T00:59:56.428Z,10.93
2019-05-10T01:02:31.654Z,10.03
2019-05-10T01:05:06.896Z,10.57
2019-05-10T01:07:42.079Z,12.30
2019-05-10T01:10:17.107Z,13.10
2019-05-10T01:12:52.206Z,13.23
2019-05-10T01:15:27.164Z,15.57
2019-05-10T01:18:03.805Z,15.20
2019-05-10T01:20:58.023Z,12.33
2019-05-10T01:23:33.508Z,12.13
2019-05-10T01:26:08.589Z,12.17
2019-05-10T01:28:44.519Z,11.90
2019-05-10T01:31:19.780Z,11.53
2019-05-10T01:33:54.751Z,12.97
2019-05-10T01:36:29.870Z,13.00
2019-05-10T01:39:05.880Z,12.90
2019-05-10T01:41:40.871Z,14.40
2019-05-10T01:44:15.914Z,11.87
2019-05-10T01:46:50.982Z,11.60
2019-05-10T01:49:26.082Z,13.50
2019-05-10T01:52:20.037Z,12.40
2019-05-10T01:54:55.047Z,13.40
2019-05-10T01:57:30.030Z,11.63
2019-05-10T02:00:08.678Z,15.23
2019-05-10T02:03:20.644Z,13.37
2019-05-10T02:05:55.835Z,13.27
2019-05-10T02:08:31.024Z,11.00
2019-05-10T02:11:06.040Z,15.10
2019-05-10T02:13:41.134Z,12.50
2019-05-10T02:16:16.103Z,13.33
2019-05-10T02:18:51.211Z,10.47
2019-05-10T02:21:26.190Z,17.23
2019-05-10T02:24:01.383Z,13.27
2019-05-10T02:26:36.423Z,11.20
2019-05-10T02:29:11.611Z,12.00
2019-05-10T02:31:46.680Z,12.87
2019-05-10T02:34:21.861Z,12.20
2019-05-10T02:36:56.929Z,13.63
2019-05-10T02:39:38.553Z,14.07
2019-05-10T02:42:13.758Z,14.27
2019-05-10T02:45:01.436Z,11.80
2019-05-10T02:47:36.613Z,13.40
2019-05-10T02:50:12.446Z,18.03
2019-05-10T02:52:47.741Z,17.63
2019-05-10T02:55:23.838Z,15.07
2019-05-10T02:58:02.785Z,13.33
2019-05-10T03:00:41.807Z,12.93
2019-05-10T03:03:20.615Z,15.10
2019-05-10T03:05:56.689Z,14.67
2019-05-10T03:08:48.306Z,14.67
2019-05-10T03:11:23.643Z,12.40
2019-05-10T03:14:04.675Z,12.40
2019-05-10T03:16:43.031Z,15.40
2019-05-10T03:19:20.976Z,13.70
2019-05-10T03:22:18.984Z,14.03
2019-05-10T03:24:54.289Z,11.53
2019-05-10T03:27:29.258Z,13.73
2019-05-10T03:30:04.459Z,15.33
2019-05-10T03:32:39.637Z,12.63
2019-05-10T03:35:14.689Z,20.03
2019-05-10T03:37:50.020Z,15.40
2019-05-10T03:40:25.133Z,14.13
2019-05-10T03:43:00.135Z,15.30
2019-05-10T03:45:35.291Z,14.00
2019-05-10T03:48:10.340Z,15.10
2019-05-10T03:50:45.461Z,22.00
2019-05-10T03:53:20.451Z,14.33
2019-05-10T03:55:55.669Z,14.23
2019-05-10T03:58:30.773Z,18.13
2019-05-10T04:01:05.774Z,18.50
2019-05-10T04:03:40.748Z,17.53
2019-05-10T04:06:17.893Z,23.50
2019-05-10T04:08:53.067Z,18.10
2019-05-10T04:11:28.154Z,25.30
2019-05-10T04:14:05.607Z,16.40
2019-05-10T04:16:42.934Z,19.10
2019-05-10T04:19:20.257Z,16.00
2019-05-10T04:21:57.581Z,20.83
2019-05-10T04:24:36.488Z,15.47
2019-05-10T04:27:30.740Z,22.37
2019-05-10T04:29:50.593Z,19.20
2019-05-10T04:32:25.956Z,16.30
2019-05-10T04:35:01.027Z,17.97
2019-05-10T04:37:36.319Z,18.97
2019-05-10T04:40:11.843Z,18.87
2019-05-10T04:43:20.467Z,16.57
2019-05-10T04:45:55.463Z,18.07
2019-05-10T04:48:30.624Z,19.67
2019-05-10T04:51:05.714Z,17.57
2019-05-10T04:53:40.707Z,17.60
2019-05-10T04:56:15.814Z,19.73
2019-05-10T04:58:51.029Z,18.23
2019-05-10T05:01:26.196Z,17.73
2019-05-10T05:04:01.284Z,19.13
2019-05-10T05:06:37.494Z,19.20
2019-05-10T05:09:12.785Z,19.27
2019-05-10T05:11:48.035Z,16.80
2019-05-10T05:14:23.191Z,18.40
2019-05-10T05:16:58.303Z,21.60
2019-05-10T05:19:33.678Z,18.63
2019-05-10T05:22:08.773Z,19.30
2019-05-10T05:24:43.894Z,22.40
2019-05-10T05:27:19.089Z,17.97
2019-05-10T05:30:29.942Z,20.67
2019-05-10T05:33:05.400Z,21.77
2019-05-10T05:35:40.461Z,20.27
2019-05-10T05:38:15.470Z,23.10
2019-05-10T05:41:25.569Z,17.30
2019-05-10T05:44:00.584Z,16.20
2019-05-10T05:46:35.842Z,17.93
2019-05-10T05:49:10.843Z,14.60
2019-05-10T05:51:45.937Z,14.60
2019-05-10T05:54:22.589Z,19.07
2019-05-10T05:56:57.863Z,13.83
2019-05-10T05:59:34.613Z,19.73
2019-05-10T06:02:09.742Z,16.63
2019-05-10T06:04:46.344Z,17.70
2019-05-10T06:07:21.629Z,15.00
2019-05-10T06:09:56.988Z,14.23
2019-05-10T06:12:32.705Z,13.00
2019-05-10T06:15:07.961Z,10.70
2019-05-10T06:17:43.185Z,9.93
2019-05-10T06:20:18.530Z,9.40
2019-05-10T06:23:19.239Z,7.93
2019-05-10T06:25:54.243Z,9.93
2019-05-10T06:28:57.081Z,6.00
2019-05-10T06:31:06.107Z,9.00
2019-05-10T06:33:51.380Z,7.27
2019-05-10T06:36:26.458Z,7.93
2019-05-10T06:39:01.632Z,6.27
2019-05-10T06:41:37.846Z,7.90
2019-05-10T06:44:13.029Z,8.90
2019-05-10T06:46:48.084Z,8.93
2019-05-10T06:49:23.318Z,7.70
2019-05-10T06:51:58.374Z,7.10
2019-05-10T06:54:33.985Z,7.33
2019-05-10T06:57:11.334Z,7.73
2019-05-10T06:59:46.423Z,6.10
2019-05-10T07:02:26.843Z,4.30
2019-05-10T07:04:59.197Z,5.27
2019-05-10T07:07:44.027Z,5.90
2019-05-10T07:10:18.634Z,5.93
2019-05-10T07:12:48.615Z,4.97
2019-05-10T07:15:23.722Z,4.83
2019-05-10T07:17:58.805Z,3.90
2019-05-10T07:20:34.221Z,6.93
2019-05-10T07:23:09.316Z,8.80
2019-05-10T07:25:46.632Z,6.23
2019-05-10T07:28:21.149Z,5.37
2019-05-10T07:30:56.123Z,5.23
2019-05-10T07:33:32.212Z,4.20
2019-05-10T07:36:14.793Z,4.43
2019-05-10T07:38:45.052Z,4.33
2019-05-10T07:41:26.423Z,4.67
2019-05-10T07:44:00.911Z,5.67
2019-05-10T07:46:33.928Z,6.57
2019-05-10T07:49:08.888Z,8.27
2019-05-10T07:51:43.965Z,9.23
2019-05-10T07:54:19.558Z,7.80
2019-05-10T07:56:54.832Z,9.67
2019-05-10T07:59:41.972Z,8.60
2019-05-10T08:02:13.012Z,8.83
2019-05-10T08:04:44.255Z,8.77
2019-05-10T08:07:20.252Z,7.20
2019-05-10T08:09:55.498Z,10.00
2019-05-10T08:12:35.232Z,8.60
2019-05-10T08:15:08.722Z,7.53
2019-05-10T08:17:45.706Z,8.00
2019-05-10T08:20:37.175Z,6.43
2019-05-10T08:22:57.601Z,11.63
2019-05-10T08:25:38.161Z,6.17
2019-05-10T08:28:09.656Z,6.90
2019-05-10T08:30:53.588Z,6.90
2019-05-10T08:33:24.262Z,6.27
2019-05-10T08:36:04.834Z,5.03
2019-05-10T08:38:39.594Z,5.00
2019-05-10T08:41:16.577Z,5.77
2019-05-10T08:43:53.361Z,5.33
2019-05-10T08:46:37.278Z,6.13
2019-05-10T08:49:05.367Z,5.30
2019-05-10T08:51:47.988Z,6.40
2019-05-10T08:54:18.251Z,9.70
2019-05-10T08:57:01.060Z,5.67
2019-05-10T08:59:30.915Z,5.70
2019-05-10T09:02:08.841Z,4.40
2019-05-10T09:04:49.905Z,8.77
2019-05-10T09:07:23.128Z,6.57
2019-05-10T09:09:57.557Z,5.50
2019-05-10T09:12:32.982Z,2.80
2019-05-10T09:15:12.576Z,4.53
2019-05-10T09:17:46.490Z,4.43
2019-05-10T09:20:26.197Z,4.93
2019-05-10T09:22:58.433Z,6.07
2019-05-10T09:25:33.959Z,5.97
2019-05-10T09:28:16.690Z,6.17
2019-05-10T09:31:00.041Z,3.47
2019-05-10T09:33:22.662Z,4.80
2019-05-10T09:35:59.357Z,3.07
2019-05-10T09:38:39.238Z,3.00
2019-05-10T09:41:12.017Z,4.40
2019-05-10T09:43:48.752Z,2.77
2019-05-10T09:46:23.778Z,3.43
2019-05-10T09:49:06.865Z,4.20
2019-05-10T09:51:36.239Z,3.40
2019-05-10T09:54:11.368Z,9.53
2019-05-10T09:56:52.066Z,2.07
2019-05-10T09:59:23.341Z,2.77
2019-05-10T10:01:58.311Z,3.50
2019-05-10T10:04:33.954Z,4.17
2019-05-10T10:07:09.008Z,3.90
2019-05-10T10:09:45.030Z,4.47
2019-05-10T10:12:20.815Z,2.40
2019-05-10T10:14:56.115Z,3.13
2019-05-10T10:17:40.286Z,3.40
2019-05-10T10:20:09.486Z,5.67
2019-05-10T10:22:49.638Z,2.30
2019-05-10T10:25:21.887Z,2.13
2019-05-10T10:27:57.420Z,2.73
2019-05-10T10:30:33.039Z,3.23
2019-05-10T10:33:11.511Z,4.00
2019-05-10T10:35:44.875Z,3.10
2019-05-10T10:38:19.850Z,2.63
2019-05-10T10:40:57.417Z,2.90
2019-05-10T10:43:32.469Z,3.87
2019-05-10T10:46:11.893Z,2.00
2019-05-10T10:48:49.129Z,4.27
2019-05-10T10:51:26.585Z,3.27
2019-05-10T10:53:58.958Z,3.67
2019-05-10T10:56:34.289Z,3.93
2019-05-10T10:59:11.716Z,4.43
2019-05-10T11:01:56.643Z,4.10
2019-05-10T11:04:24.231Z,2.50
2019-05-10T11:07:10.072Z,4.07
2019-05-10T11:09:36.288Z,6.33
2019-05-10T11:12:14.807Z,2.03
2019-05-10T11:14:48.078Z,3.93
2019-05-10T11:17:23.285Z,2.80
2019-05-10T11:20:00.268Z,2.00
2019-05-10T11:22:35.382Z,3.23
2019-05-10T11:25:12.955Z,2.30
2019-05-10T11:27:52.796Z,4.50
2019-05-10T11:30:25.055Z,2.43
2019-05-10T11:33:00.524Z,4.30
2019-05-10T11:35:35.694Z,3.83
2019-05-10T11:38:16.217Z,2.23
2019-05-10T11:40:50.794Z,5.23
2019-05-10T11:43:27.098Z,1.67
2019-05-10T11:46:02.468Z,1.27
2019-05-10T11:48:39.665Z,3.57
2019-05-10T11:51:17.266Z,2.90
2019-05-10T11:53:55.541Z,2.03
2019-05-10T11:56:28.661Z,3.67
2019-05-10T11:59:05.413Z,2.70
2019-05-10T12:01:41.819Z,3.40
2019-05-10T12:04:28.766Z,2.90
2019-05-10T12:06:58.557Z,5.27
2019-05-10T12:09:33.915Z,2.80
2019-05-10T12:12:12.255Z,1.27
2019-05-10T12:14:47.621Z,4.70
2019-05-10T12:17:23.909Z,2.97
2019-05-10T12:20:02.243Z,3.70
2019-05-10T12:22:46.359Z,5.73
2019-05-10T12:25:36.001Z,2.93
2019-05-10T12:27:52.340Z,1.67
2019-05-10T12:30:37.659Z,7.67
2019-05-10T12:33:27.324Z,3.00
2019-05-10T12:35:59.005Z,4.13
2019-05-10T12:38:39.800Z,2.70
2019-05-10T12:41:14.804Z,7.07
2019-05-10T12:43:51.712Z,4.10
2019-05-10T12:46:26.613Z,2.00
2019-05-10T12:49:04.877Z,3.13
2019-05-10T12:51:40.871Z,9.20
2019-05-10T12:54:23.823Z,3.90
2019-05-10T12:56:55.548Z,6.13
2019-05-10T12:59:34.827Z,5.57
2019-05-10T13:02:10.873Z,4.20
2019-05-10T13:04:47.246Z,8.90
2019-05-10T13:07:21.781Z,4.17
2019-05-10T13:10:03.748Z,2.10
2019-05-10T13:12:36.928Z,7.27
2019-05-10T13:15:12.050Z,3.50
2019-05-10T13:17:51.222Z,2.80
2019-05-10T13:20:30.982Z,2.40
2019-05-10T13:23:03.684Z,4.67
2019-05-10T13:25:38.800Z,3.83
2019-05-10T13:28:13.983Z,3.90
2019-05-10T13:30:49.084Z,2.80
2019-05-10T13:33:28.983Z,4.43
2019-05-10T13:36:03.675Z,2.83
2019-05-10T13:38:43.856Z,4.57
2019-05-10T13:41:23.139Z,3.43
2019-05-10T13:43:52.612Z,4.97
2019-05-10T13:46:27.715Z,2.70
2019-05-10T13:49:02.898Z,5.13
2019-05-10T13:51:38.962Z,2.27
2019-05-10T13:54:14.216Z,3.07
2019-05-10T13:56:52.050Z,4.07
2019-05-10T13:59:26.176Z,2.33
2019-05-10T14:02:33.055Z,3.90
2019-05-10T14:05:05.405Z,2.80
2019-05-10T14:07:50.255Z,4.60
2019-05-10T14:10:23.589Z,2.70
2019-05-10T14:13:35.599Z,6.20
2019-05-10T14:16:07.460Z,4.90
2019-05-10T14:18:42.656Z,7.00
2019-05-10T14:21:17.751Z,4.63
2019-05-10T14:23:57.012Z,2.67
2019-05-10T14:26:32.870Z,3.20
2019-05-10T14:29:11.029Z,1.93
2019-05-10T14:31:44.685Z,3.40
2019-05-10T14:34:19.672Z,1.90
2019-05-10T14:36:54.872Z,3.37
2019-05-10T14:39:29.870Z,10.67
2019-05-10T14:42:04.876Z,3.33
2019-05-10T14:44:39.887Z,3.20
2019-05-10T14:47:15.084Z,2.67
2019-05-10T14:50:10.319Z,2.27
2019-05-10T14:52:45.435Z,4.93
2019-05-10T14:55:21.004Z,1.87
2019-05-10T14:57:56.470Z,5.93
2019-05-10T15:00:31.805Z,8.47
2019-05-10T15:03:06.778Z,10.20
2019-05-10T15:05:42.159Z,3.53
2019-05-10T15:08:17.199Z,4.37
2019-05-10T15:10:52.356Z,5.20
2019-05-10T15:13:28.311Z,2.90
2019-05-10T15:16:07.419Z,8.27
2019-05-10T15:18:40.368Z,3.00
2019-05-10T15:21:15.430Z,5.80
2019-05-10T15:23:55.392Z,4.00
2019-05-10T15:26:27.330Z,5.63
2019-05-10T15:29:02.523Z,3.37
2019-05-10T15:31:37.479Z,4.10
2019-05-10T15:34:13.308Z,4.47
2019-05-10T15:36:48.320Z,2.53
2019-05-10T15:39:28.754Z,3.10
2019-05-10T15:42:03.146Z,7.03
2019-05-10T15:44:38.120Z,4.17
2019-05-10T15:47:19.742Z,2.37
2019-05-10T15:49:54.588Z,3.73
2019-05-10T15:52:26.770Z,3.33
2019-05-10T15:55:02.089Z,8.50
2019-05-10T15:57:37.180Z,5.37
2019-05-10T16:00:12.988Z,4.87
2019-05-10T16:02:48.198Z,2.87
2019-05-10T16:05:41.107Z,6.30
2019-05-10T16:08:00.497Z,3.23
2019-05-10T16:10:39.596Z,4.90
2019-05-10T16:13:14.642Z,4.30
2019-05-10T16:15:51.426Z,9.53
2019-05-10T16:18:26.555Z,4.67
2019-05-10T16:21:01.839Z,5.83
2019-05-10T16:23:41.418Z,9.03
2019-05-10T16:26:17.551Z,4.27
2019-05-10T16:28:53.110Z,5.53
2019-05-10T16:31:31.663Z,3.80
2019-05-10T16:34:07.214Z,5.37
2019-05-10T16:36:43.186Z,5.20
2019-05-10T16:39:18.369Z,6.10
2019-05-10T16:41:55.233Z,1.60
2019-05-10T16:44:30.316Z,3.10
2019-05-10T16:47:06.319Z,7.17
2019-05-10T16:49:41.393Z,8.00
2019-05-10T16:52:19.615Z,5.87
2019-05-10T16:54:58.007Z,3.33
2019-05-10T16:57:37.018Z,3.30
2019-05-10T17:07:00.195Z,4.87
2019-05-10T17:10:10.800Z,6.63
2019-05-10T17:13:21.780Z,6.67
2019-05-10T17:16:32.489Z,5.50
2019-05-10T17:19:42.304Z,4.90
2019-05-10T17:22:53.621Z,6.73
2019-05-10T17:26:04.555Z,3.60
2019-05-10T17:29:15.313Z,4.93
2019-05-10T17:32:28.365Z,3.90
2019-05-10T17:35:42.081Z,4.77
2019-05-10T17:38:53.755Z,4.63
2019-05-10T17:42:04.674Z,3.23
2019-05-10T17:45:14.017Z,2.97
2019-05-10T17:48:24.713Z,5.47
2019-05-10T17:51:35.739Z,6.13
2019-05-10T17:54:46.844Z,5.77
2019-05-10T17:57:57.720Z,8.50
2019-05-10T18:01:08.587Z,3.23
2019-05-10T18:04:19.061Z,2.27
2019-05-10T18:07:29.029Z,2.27
2019-05-10T18:10:40.200Z,5.27
2019-05-10T18:13:50.045Z,1.80
2019-05-10T18:17:00.600Z,5.43
2019-05-10T18:20:11.427Z,3.10
2019-05-10T18:23:22.965Z,3.67
2019-05-10T18:26:34.075Z,5.60
2019-05-10T18:29:44.676Z,4.03
2019-05-10T18:32:58.359Z,2.73
2019-05-10T18:36:11.014Z,2.97
2019-05-10T18:39:22.080Z,5.00
2019-05-10T18:42:32.382Z,4.43
2019-05-10T18:45:44.385Z,4.33
2019-05-10T18:48:55.131Z,5.40
2019-05-10T18:52:06.614Z,1.37
2019-05-10T18:55:17.936Z,5.07
2019-05-10T18:58:32.502Z,2.40
2019-05-10T19:01:43.121Z,4.67
2019-05-10T19:04:54.275Z,3.60
2019-05-10T19:08:06.131Z,6.30
2019-05-10T19:11:16.860Z,8.20
2019-05-10T19:14:29.728Z,6.33
2019-05-10T19:17:45.911Z,8.33
2019-05-10T19:20:54.988Z,8.77
2019-05-10T19:24:07.536Z,2.40
2019-05-10T19:27:17.867Z,2.43
2019-05-10T19:30:27.919Z,6.20
2019-05-10T19:33:38.620Z,4.00
2019-05-10T19:36:48.835Z,3.07
2019-05-10T19:39:59.721Z,6.63
2019-05-10T19:43:15.167Z,4.87
2019-05-10T19:46:22.006Z,3.57
2019-05-10T19:49:32.208Z,5.97
2019-05-10T19:52:42.863Z,3.97
2019-05-10T19:55:57.119Z,3.40
2019-05-10T19:59:05.592Z,6.07
2019-05-10T20:02:16.764Z,4.73
2019-05-10T20:05:27.014Z,5.97
2019-05-10T20:08:38.211Z,4.10
2019-05-10T20:11:50.185Z,4.00
2019-05-10T20:15:00.539Z,4.43
2019-05-10T20:18:11.703Z,3.53
2019-05-10T20:21:23.783Z,5.70
2019-05-10T20:24:33.932Z,2.70
2019-05-10T20:27:44.726Z,3.53
2019-05-10T20:30:54.705Z,3.90
2019-05-10T20:34:04.927Z,5.40
2019-05-10T20:37:16.119Z,2.07
2019-05-10T20:40:26.513Z,5.10
2019-05-10T20:43:37.381Z,5.20
2019-05-10T20:46:48.386Z,7.00
2019-05-10T20:49:58.839Z,3.17
2019-05-10T20:53:09.905Z,3.80
2019-05-10T20:56:20.425Z,3.27
2019-05-10T20:59:32.176Z,5.50
2019-05-10T21:02:42.575Z,6.50
2019-05-10T21:05:53.620Z,3.10
2019-05-10T21:09:05.720Z,6.40
2019-05-10T21:12:16.312Z,2.70
2019-05-10T21:15:27.051Z,4.23
2019-05-10T21:18:40.540Z,4.27
2019-05-10T21:21:51.160Z,4.60
2019-05-10T21:25:02.264Z,4.00
2019-05-10T21:28:13.036Z,2.57
2019-05-10T21:31:24.209Z,4.60
2019-05-10T21:34:35.232Z,7.70
2019-05-10T21:37:45.900Z,3.40
2019-05-10T21:40:59.261Z,4.90
2019-05-10T21:44:09.317Z,2.80
2019-05-10T21:47:19.227Z,3.90
2019-05-10T21:50:30.255Z,2.60
2019-05-10T21:53:40.930Z,6.33
2019-05-10T21:56:51.851Z,4.10
2019-05-10T22:00:02.599Z,4.40
2019-05-10T22:03:14.024Z,4.70
2019-05-10T22:06:24.395Z,5.53
2019-05-10T22:09:35.223Z,2.83
2019-05-10T22:12:46.097Z,5.67
2019-05-10T22:15:56.913Z,14.87
2019-05-10T22:19:07.818Z,3.23
2019-05-10T22:22:18.607Z,3.63
2019-05-10T22:25:29.108Z,9.10
2019-05-10T22:28:39.290Z,4.50
2019-05-10T22:31:50.202Z,14.30
2019-05-10T22:35:00.523Z,5.13
2019-05-10T22:38:18.458Z,6.23
2019-05-10T22:41:28.988Z,3.30
2019-05-10T22:44:39.542Z,4.10
2019-05-10T22:47:50.120Z,4.13
2019-05-10T22:51:00.668Z,4.53
2019-05-10T22:54:17.696Z,5.43
2019-05-10T22:57:28.512Z,4.33
2019-05-10T23:00:41.094Z,3.57
2019-05-10T23:03:54.105Z,2.93
2019-05-10T23:07:11.280Z,3.87
2019-05-10T23:10:25.494Z,3.13
2019-05-10T23:13:37.573Z,4.57
2019-05-10T23:16:53.382Z,3.60
2019-05-10T23:20:04.445Z,4.60
2019-05-10T23:23:15.374Z,3.70
2019-05-10T23:26:25.226Z,4.27
2019-05-10T23:29:38.156Z,5.23
2019-05-10T23:32:48.744Z,4.83
2019-05-10T23:35:58.606Z,4.37
2019-05-10T23:39:21.143Z,5.03
2019-05-10T23:42:31.872Z,2.60
2019-05-10T23:45:42.596Z,3.57
2019-05-10T23:48:52.803Z,4.33
2019-05-10T23:52:04.180Z,3.33
2019-05-10T23:55:15.246Z,3.60
2019-05-10T23:58:28.020Z,3.53
